sensor_id;sensor_type;location;lat;lon;timestamp;temperature;humidity
9544;DHT22;30418;51.45933468;7.33152330;2023-09-08T00:00:27;25.90;51.10
9544;DHT22;30418;51.45933468;7.33152330;2023-09-08T00:02:55;25.90;51.20
9544;DHT22;30418;51.45933468;7.33152330;2023-09-08T00:05:24;25.90;51.30
9544;DHT22;30418;51.45933468;7.33152330;2023-09-08T00:07:52;25.90;51.30
9544;DHT22;30418;51.45933468;7.33152330;2023-09-08T00:10:24;25.90;51.30
9544;DHT22;30418;51.45933468;7.33152330;2023-09-08T00:12:53;25.80;51.40
9544;DHT22;30418;51.45933468;7.33152330;2023-09-08T00:15:24;25.80;51.40
9544;DHT22;30418;51.45933468;7.33152330;2023-09-08T00:17:52;25.80;51.40
9544;DHT22;30418;51.45933468;7.33152330;2023-09-08T00:20:21;25.80;51.50
9544;DHT22;30418;51.45933468;7.33152330;2023-09-08T00:22:49;25.80;51.60
9544;DHT22;30418;51.45933468;7.33152330;2023-09-08T00:25:18;25.70;51.60
9544;DHT22;30418;51.45933468;7.33152330;2023-09-08T00:27:47;25.70;51.60
9544;DHT22;30418;51.45933468;7.33152330;2023-09-08T00:30:16;25.70;51.70
9544;DHT22;30418;51.45933468;7.33152330;2023-09-08T00:32:47;25.60;51.70
9544;DHT22;30418;51.45933468;7.33152330;2023-09-08T00:35:21;25.60;51.80
9544;DHT22;30418;51.45933468;7.33152330;2023-09-08T00:37:54;25.60;51.90
9544;DHT22;30418;51.45933468;7.33152330;2023-09-08T00:40:23;25.60;52.00
9544;DHT22;30418;51.45933468;7.33152330;2023-09-08T00:42:54;25.60;51.90
9544;DHT22;30418;51.45933468;7.33152330;2023-09-08T00:45:22;25.60;52.00
9544;DHT22;30418;51.45933468;7.33152330;2023-09-08T00:47:52;25.50;52.40
9544;DHT22;30418;51.45933468;7.33152330;2023-09-08T00:50:20;25.50;52.00
9544;DHT22;30418;51.45933468;7.33152330;2023-09-08T00:52:50;25.50;52.00
9544;DHT22;30418;51.45933468;7.33152330;2023-09-08T00:55:18;25.50;52.00
9544;DHT22;30418;51.45933468;7.33152330;2023-09-08T00:57:47;25.40;52.10
9544;DHT22;30418;51.45933468;7.33152330;2023-09-08T01:00:18;25.40;52.10
9544;DHT22;30418;51.45933468;7.33152330;2023-09-08T01:02:49;25.40;52.20
9544;DHT22;30418;51.45933468;7.33152330;2023-09-08T01:05:18;25.40;52.10
9544;DHT22;30418;51.45933468;7.33152330;2023-09-08T01:07:48;25.40;52.30
9544;DHT22;30418;51.45933468;7.33152330;2023-09-08T01:10:17;25.40;52.30
9544;DHT22;30418;51.45933468;7.33152330;2023-09-08T01:12:45;25.30;52.30
9544;DHT22;30418;51.45933468;7.33152330;2023-09-08T01:15:14;25.30;52.30
9544;DHT22;30418;51.45933468;7.33152330;2023-09-08T01:17:44;25.30;52.30
9544;DHT22;30418;51.45933468;7.33152330;2023-09-08T01:20:17;25.30;52.40
9544;DHT22;30418;51.45933468;7.33152330;2023-09-08T01:23:03;25.30;52.40
9544;DHT22;30418;51.45933468;7.33152330;2023-09-08T01:25:40;25.20;52.50
9544;DHT22;30418;51.45933468;7.33152330;2023-09-08T01:28:12;25.20;52.50
9544;DHT22;30418;51.45933468;7.33152330;2023-09-08T01:30:42;25.20;52.50
9544;DHT22;30418;51.45933468;7.33152330;2023-09-08T01:33:11;25.10;52.40
9544;DHT22;30418;51.45933468;7.33152330;2023-09-08T01:35:39;25.10;52.50
9544;DHT22;30418;51.45933468;7.33152330;2023-09-08T01:38:08;25.10;52.50
9544;DHT22;30418;51.45933468;7.33152330;2023-09-08T01:40:36;25.10;52.50
9544;DHT22;30418;51.45933468;7.33152330;2023-09-08T01:43:06;25.10;52.60
9544;DHT22;30418;51.45933468;7.33152330;2023-09-08T01:45:35;25.00;52.50
9544;DHT22;30418;51.45933468;7.33152330;2023-09-08T01:48:04;25.00;52.50
9544;DHT22;30418;51.45933468;7.33152330;2023-09-08T01:50:36;25.00;52.60
9544;DHT22;30418;51.45933468;7.33152330;2023-09-08T01:53:05;25.00;52.60
9544;DHT22;30418;51.45933468;7.33152330;2023-09-08T01:55:36;25.00;52.70
9544;DHT22;30418;51.45933468;7.33152330;2023-09-08T01:58:06;24.90;52.60
9544;DHT22;30418;51.45933468;7.33152330;2023-09-08T02:00:34;24.90;52.70
9544;DHT22;30418;51.45933468;7.33152330;2023-09-08T02:03:03;24.90;52.70
9544;DHT22;30418;51.45933468;7.33152330;2023-09-08T02:05:34;24.80;52.70
9544;DHT22;30418;51.45933468;7.33152330;2023-09-08T02:08:06;24.80;52.70
9544;DHT22;30418;51.45933468;7.33152330;2023-09-08T02:10:41;24.80;52.80
9544;DHT22;30418;51.45933468;7.33152330;2023-09-08T02:13:11;24.80;53.00
9544;DHT22;30418;51.45933468;7.33152330;2023-09-08T02:15:39;24.80;52.90
9544;DHT22;30418;51.45933468;7.33152330;2023-09-08T02:18:09;24.70;52.80
9544;DHT22;30418;51.45933468;7.33152330;2023-09-08T02:20:39;24.70;52.80
9544;DHT22;30418;51.45933468;7.33152330;2023-09-08T02:23:08;24.70;52.80
9544;DHT22;30418;51.45933468;7.33152330;2023-09-08T02:25:37;24.70;52.90
9544;DHT22;30418;51.45933468;7.33152330;2023-09-08T02:28:06;24.70;53.00
9544;DHT22;30418;51.45933468;7.33152330;2023-09-08T02:30:36;24.70;53.00
9544;DHT22;30418;51.45933468;7.33152330;2023-09-08T02:33:04;24.60;53.00
9544;DHT22;30418;51.45933468;7.33152330;2023-09-08T02:35:36;24.60;53.00
9544;DHT22;30418;51.45933468;7.33152330;2023-09-08T02:38:07;24.60;53.10
9544;DHT22;30418;51.45933468;7.33152330;2023-09-08T02:40:36;24.60;53.10
9544;DHT22;30418;51.45933468;7.33152330;2023-09-08T02:43:05;24.50;53.00
9544;DHT22;30418;51.45933468;7.33152330;2023-09-08T02:45:34;24.50;53.10
9544;DHT22;30418;51.45933468;7.33152330;2023-09-08T02:48:05;24.50;53.10
9544;DHT22;30418;51.45933468;7.33152330;2023-09-08T02:50:34;24.50;53.10
9544;DHT22;30418;51.45933468;7.33152330;2023-09-08T02:53:02;24.40;53.00
9544;DHT22;30418;51.45933468;7.33152330;2023-09-08T02:55:31;24.40;53.10
9544;DHT22;30418;51.45933468;7.33152330;2023-09-08T02:58:00;24.40;53.10
9544;DHT22;30418;51.45933468;7.33152330;2023-09-08T03:00:28;24.40;53.20
9544;DHT22;30418;51.45933468;7.33152330;2023-09-08T03:02:58;24.40;53.20
9544;DHT22;30418;51.45933468;7.33152330;2023-09-08T03:05:26;24.40;53.40
9544;DHT22;30418;51.45933468;7.33152330;2023-09-08T03:07:55;24.30;53.20
9544;DHT22;30418;51.45933468;7.33152330;2023-09-08T03:10:24;24.30;53.30
9544;DHT22;30418;51.45933468;7.33152330;2023-09-08T03:12:52;24.30;53.40
9544;DHT22;30418;51.45933468;7.33152330;2023-09-08T03:15:21;24.30;53.40
9544;DHT22;30418;51.45933468;7.33152330;2023-09-08T03:17:50;24.30;53.50
9544;DHT22;30418;51.45933468;7.33152330;2023-09-08T03:20:20;24.30;53.50
9544;DHT22;30418;51.45933468;7.33152330;2023-09-08T03:22:49;24.20;53.50
9544;DHT22;30418;51.45933468;7.33152330;2023-09-08T03:25:17;24.20;53.40
9544;DHT22;30418;51.45933468;7.33152330;2023-09-08T03:27:46;24.20;53.40
9544;DHT22;30418;51.45933468;7.33152330;2023-09-08T03:30:14;24.10;53.40
9544;DHT22;30418;51.45933468;7.33152330;2023-09-08T03:32:43;24.10;54.00
9544;DHT22;30418;51.45933468;7.33152330;2023-09-08T03:35:12;24.10;53.40
9544;DHT22;30418;51.45933468;7.33152330;2023-09-08T03:37:47;24.10;53.40
9544;DHT22;30418;51.45933468;7.33152330;2023-09-08T03:40:15;24.10;53.40
9544;DHT22;30418;51.45933468;7.33152330;2023-09-08T03:42:44;24.10;53.50
9544;DHT22;30418;51.45933468;7.33152330;2023-09-08T03:45:12;24.10;53.40
9544;DHT22;30418;51.45933468;7.33152330;2023-09-08T03:47:41;24.00;53.30
9544;DHT22;30418;51.45933468;7.33152330;2023-09-08T03:50:09;24.00;53.30
9544;DHT22;30418;51.45933468;7.33152330;2023-09-08T03:52:38;24.00;53.30
9544;DHT22;30418;51.45933468;7.33152330;2023-09-08T03:55:08;23.90;53.20
9544;DHT22;30418;51.45933468;7.33152330;2023-09-08T03:57:37;24.00;53.30
9544;DHT22;30418;51.45933468;7.33152330;2023-09-08T04:00:06;23.90;53.30
9544;DHT22;30418;51.45933468;7.33152330;2023-09-08T04:02:40;23.90;53.40
9544;DHT22;30418;51.45933468;7.33152330;2023-09-08T04:05:09;23.90;53.60
9544;DHT22;30418;51.45933468;7.33152330;2023-09-08T04:07:38;23.90;53.60
9544;DHT22;30418;51.45933468;7.33152330;2023-09-08T04:10:09;23.90;53.60
9544;DHT22;30418;51.45933468;7.33152330;2023-09-08T04:12:39;23.80;53.60
9544;DHT22;30418;51.45933468;7.33152330;2023-09-08T04:15:08;23.80;53.60
9544;DHT22;30418;51.45933468;7.33152330;2023-09-08T04:17:37;23.80;53.70
9544;DHT22;30418;51.45933468;7.33152330;2023-09-08T04:20:07;23.80;53.80
9544;DHT22;30418;51.45933468;7.33152330;2023-09-08T04:22:37;23.80;53.90
9544;DHT22;30418;51.45933468;7.33152330;2023-09-08T04:25:09;23.70;53.80
9544;DHT22;30418;51.45933468;7.33152330;2023-09-08T04:27:38;23.70;53.90
9544;DHT22;30418;51.45933468;7.33152330;2023-09-08T04:30:08;23.70;53.90
9544;DHT22;30418;51.45933468;7.33152330;2023-09-08T04:32:37;23.70;53.90
9544;DHT22;30418;51.45933468;7.33152330;2023-09-08T04:35:07;23.70;54.00
9544;DHT22;30418;51.45933468;7.33152330;2023-09-08T04:37:37;23.60;54.00
9544;DHT22;30418;51.45933468;7.33152330;2023-09-08T04:40:09;23.60;54.00
9544;DHT22;30418;51.45933468;7.33152330;2023-09-08T04:42:38;23.60;54.00
9544;DHT22;30418;51.45933468;7.33152330;2023-09-08T04:45:08;23.60;54.00
9544;DHT22;30418;51.45933468;7.33152330;2023-09-08T04:47:38;23.60;54.00
9544;DHT22;30418;51.45933468;7.33152330;2023-09-08T04:50:06;23.60;54.10
9544;DHT22;30418;51.45933468;7.33152330;2023-09-08T04:52:36;23.60;54.20
9544;DHT22;30418;51.45933468;7.33152330;2023-09-08T04:55:06;23.50;54.00
9544;DHT22;30418;51.45933468;7.33152330;2023-09-08T04:57:40;23.50;54.20
9544;DHT22;30418;51.45933468;7.33152330;2023-09-08T05:00:09;23.50;54.20
9544;DHT22;30418;51.45933468;7.33152330;2023-09-08T05:02:39;23.50;54.20
9544;DHT22;30418;51.45933468;7.33152330;2023-09-08T05:05:09;23.50;54.20
9544;DHT22;30418;51.45933468;7.33152330;2023-09-08T05:07:37;23.50;54.30
9544;DHT22;30418;51.45933468;7.33152330;2023-09-08T05:10:06;23.50;54.30
9544;DHT22;30418;51.45933468;7.33152330;2023-09-08T05:12:40;23.40;54.30
9544;DHT22;30418;51.45933468;7.33152330;2023-09-08T05:15:09;23.40;54.30
9544;DHT22;30418;51.45933468;7.33152330;2023-09-08T05:17:46;23.40;54.30
9544;DHT22;30418;51.45933468;7.33152330;2023-09-08T05:20:17;23.40;54.30
9544;DHT22;30418;51.45933468;7.33152330;2023-09-08T05:22:45;23.40;54.30
9544;DHT22;30418;51.45933468;7.33152330;2023-09-08T05:25:14;23.40;54.30
9544;DHT22;30418;51.45933468;7.33152330;2023-09-08T05:27:44;23.40;54.40
9544;DHT22;30418;51.45933468;7.33152330;2023-09-08T05:30:14;23.40;54.40
9544;DHT22;30418;51.45933468;7.33152330;2023-09-08T05:32:42;23.30;54.30
9544;DHT22;30418;51.45933468;7.33152330;2023-09-08T05:35:11;23.40;54.40
9544;DHT22;30418;51.45933468;7.33152330;2023-09-08T05:37:39;23.30;54.30
9544;DHT22;30418;51.45933468;7.33152330;2023-09-08T05:40:08;23.30;54.50
9544;DHT22;30418;51.45933468;7.33152330;2023-09-08T05:42:37;23.30;54.40
9544;DHT22;30418;51.45933468;7.33152330;2023-09-08T05:45:10;23.30;54.40
9544;DHT22;30418;51.45933468;7.33152330;2023-09-08T05:47:39;23.30;54.50
9544;DHT22;30418;51.45933468;7.33152330;2023-09-08T05:50:09;23.30;54.40
9544;DHT22;30418;51.45933468;7.33152330;2023-09-08T05:52:38;23.30;54.50
9544;DHT22;30418;51.45933468;7.33152330;2023-09-08T05:55:06;23.30;54.60
9544;DHT22;30418;51.45933468;7.33152330;2023-09-08T05:57:35;23.30;54.60
9544;DHT22;30418;51.45933468;7.33152330;2023-09-08T06:00:06;23.30;54.60
9544;DHT22;30418;51.45933468;7.33152330;2023-09-08T06:02:47;23.30;54.70
9544;DHT22;30418;51.45933468;7.33152330;2023-09-08T06:05:17;23.20;54.70
9544;DHT22;30418;51.45933468;7.33152330;2023-09-08T06:07:46;23.20;54.70
9544;DHT22;30418;51.45933468;7.33152330;2023-09-08T06:10:34;23.20;54.70
9544;DHT22;30418;51.45933468;7.33152330;2023-09-08T06:13:06;23.30;54.90
9544;DHT22;30418;51.45933468;7.33152330;2023-09-08T06:15:36;23.30;55.60
9544;DHT22;30418;51.45933468;7.33152330;2023-09-08T06:18:06;23.30;55.00
9544;DHT22;30418;51.45933468;7.33152330;2023-09-08T06:20:35;23.30;55.10
9544;DHT22;30418;51.45933468;7.33152330;2023-09-08T06:23:03;23.30;55.10
9544;DHT22;30418;51.45933468;7.33152330;2023-09-08T06:25:32;23.30;55.20
9544;DHT22;30418;51.45933468;7.33152330;2023-09-08T06:28:00;23.30;55.20
9544;DHT22;30418;51.45933468;7.33152330;2023-09-08T06:30:29;23.30;55.20
9544;DHT22;30418;51.45933468;7.33152330;2023-09-08T06:32:59;23.30;55.30
9544;DHT22;30418;51.45933468;7.33152330;2023-09-08T06:35:30;23.30;55.30
9544;DHT22;30418;51.45933468;7.33152330;2023-09-08T06:37:58;23.30;55.50
9544;DHT22;30418;51.45933468;7.33152330;2023-09-08T06:40:29;23.30;55.50
9544;DHT22;30418;51.45933468;7.33152330;2023-09-08T06:42:58;23.30;55.60
9544;DHT22;30418;51.45933468;7.33152330;2023-09-08T06:45:49;23.40;55.70
9544;DHT22;30418;51.45933468;7.33152330;2023-09-08T06:48:21;23.40;55.70
9544;DHT22;30418;51.45933468;7.33152330;2023-09-08T06:50:52;23.40;55.70
9544;DHT22;30418;51.45933468;7.33152330;2023-09-08T06:53:24;23.40;56.00
9544;DHT22;30418;51.45933468;7.33152330;2023-09-08T06:55:56;23.50;55.90
9544;DHT22;30418;51.45933468;7.33152330;2023-09-08T06:58:24;23.50;56.10
9544;DHT22;30418;51.45933468;7.33152330;2023-09-08T07:00:53;23.50;56.20
9544;DHT22;30418;51.45933468;7.33152330;2023-09-08T07:03:23;23.50;56.20
9544;DHT22;30418;51.45933468;7.33152330;2023-09-08T07:05:54;23.50;56.30
9544;DHT22;30418;51.45933468;7.33152330;2023-09-08T07:08:23;23.60;56.30
9544;DHT22;30418;51.45933468;7.33152330;2023-09-08T07:10:52;23.60;56.30
9544;DHT22;30418;51.45933468;7.33152330;2023-09-08T07:13:21;23.70;56.60
9544;DHT22;30418;51.45933468;7.33152330;2023-09-08T07:15:50;23.70;56.60
9544;DHT22;30418;51.45933468;7.33152330;2023-09-08T07:18:19;23.70;56.60
9544;DHT22;30418;51.45933468;7.33152330;2023-09-08T07:20:47;23.80;56.80
9544;DHT22;30418;51.45933468;7.33152330;2023-09-08T07:23:19;23.80;56.80
9544;DHT22;30418;51.45933468;7.33152330;2023-09-08T07:25:48;23.80;57.50
9544;DHT22;30418;51.45933468;7.33152330;2023-09-08T07:28:21;23.90;57.00
9544;DHT22;30418;51.45933468;7.33152330;2023-09-08T07:30:51;23.90;57.60
9544;DHT22;30418;51.45933468;7.33152330;2023-09-08T07:33:21;23.90;56.90
9544;DHT22;30418;51.45933468;7.33152330;2023-09-08T07:35:51;24.00;57.00
9544;DHT22;30418;51.45933468;7.33152330;2023-09-08T07:38:21;24.00;57.00
9544;DHT22;30418;51.45933468;7.33152330;2023-09-08T07:40:49;24.10;57.10
9544;DHT22;30418;51.45933468;7.33152330;2023-09-08T07:43:17;24.10;57.10
9544;DHT22;30418;51.45933468;7.33152330;2023-09-08T07:45:47;24.20;57.10
9544;DHT22;30418;51.45933468;7.33152330;2023-09-08T07:48:17;24.30;57.30
9544;DHT22;30418;51.45933468;7.33152330;2023-09-08T07:50:46;24.30;57.30
9544;DHT22;30418;51.45933468;7.33152330;2023-09-08T07:53:14;24.40;57.20
9544;DHT22;30418;51.45933468;7.33152330;2023-09-08T07:55:44;24.40;57.20
9544;DHT22;30418;51.45933468;7.33152330;2023-09-08T07:58:13;24.50;57.30
9544;DHT22;30418;51.45933468;7.33152330;2023-09-08T08:00:42;24.50;57.30
9544;DHT22;30418;51.45933468;7.33152330;2023-09-08T08:03:10;24.60;57.20
9544;DHT22;30418;51.45933468;7.33152330;2023-09-08T08:05:39;24.70;57.30
9544;DHT22;30418;51.45933468;7.33152330;2023-09-08T08:08:09;24.80;57.40
9544;DHT22;30418;51.45933468;7.33152330;2023-09-08T08:10:40;24.80;57.30
9544;DHT22;30418;51.45933468;7.33152330;2023-09-08T08:13:11;24.90;57.30
9544;DHT22;30418;51.45933468;7.33152330;2023-09-08T08:15:41;25.00;57.10
9544;DHT22;30418;51.45933468;7.33152330;2023-09-08T08:18:10;25.10;57.10
9544;DHT22;30418;51.45933468;7.33152330;2023-09-08T08:20:39;25.20;57.00
9544;DHT22;30418;51.45933468;7.33152330;2023-09-08T08:23:08;25.30;56.80
9544;DHT22;30418;51.45933468;7.33152330;2023-09-08T08:25:36;25.40;56.90
9544;DHT22;30418;51.45933468;7.33152330;2023-09-08T08:28:05;25.40;56.70
9544;DHT22;30418;51.45933468;7.33152330;2023-09-08T08:30:38;25.60;56.60
9544;DHT22;30418;51.45933468;7.33152330;2023-09-08T08:33:06;25.60;56.50
9544;DHT22;30418;51.45933468;7.33152330;2023-09-08T08:35:35;25.70;56.40
9544;DHT22;30418;51.45933468;7.33152330;2023-09-08T08:38:06;25.80;56.30
9544;DHT22;30418;51.45933468;7.33152330;2023-09-08T08:40:33;25.90;56.10
9544;DHT22;30418;51.45933468;7.33152330;2023-09-08T08:43:07;26.00;56.00
9544;DHT22;30418;51.45933468;7.33152330;2023-09-08T08:45:38;26.10;55.90
9544;DHT22;30418;51.45933468;7.33152330;2023-09-08T08:48:07;26.20;55.80
9544;DHT22;30418;51.45933468;7.33152330;2023-09-08T08:50:37;26.30;55.60
9544;DHT22;30418;51.45933468;7.33152330;2023-09-08T08:53:07;26.40;55.40
9544;DHT22;30418;51.45933468;7.33152330;2023-09-08T08:55:36;26.40;55.20
9544;DHT22;30418;51.45933468;7.33152330;2023-09-08T08:58:05;26.50;55.10
9544;DHT22;30418;51.45933468;7.33152330;2023-09-08T09:00:34;26.60;55.10
9544;DHT22;30418;51.45933468;7.33152330;2023-09-08T09:03:07;26.70;55.10
9544;DHT22;30418;51.45933468;7.33152330;2023-09-08T09:05:42;26.80;54.90
9544;DHT22;30418;51.45933468;7.33152330;2023-09-08T09:08:16;26.90;54.90
9544;DHT22;30418;51.45933468;7.33152330;2023-09-08T09:10:45;26.90;54.70
9544;DHT22;30418;51.45933468;7.33152330;2023-09-08T09:13:17;27.00;54.80
9544;DHT22;30418;51.45933468;7.33152330;2023-09-08T09:15:45;27.10;54.80
9544;DHT22;30418;51.45933468;7.33152330;2023-09-08T09:18:15;27.10;54.80
9544;DHT22;30418;51.45933468;7.33152330;2023-09-08T09:20:54;27.20;54.70
9544;DHT22;30418;51.45933468;7.33152330;2023-09-08T09:23:30;27.30;54.80
9544;DHT22;30418;51.45933468;7.33152330;2023-09-08T09:26:01;27.30;54.30
9544;DHT22;30418;51.45933468;7.33152330;2023-09-08T09:28:31;27.40;54.20
9544;DHT22;30418;51.45933468;7.33152330;2023-09-08T09:31:01;27.50;54.20
9544;DHT22;30418;51.45933468;7.33152330;2023-09-08T09:33:31;27.50;54.20
9544;DHT22;30418;51.45933468;7.33152330;2023-09-08T09:35:59;27.60;54.00
9544;DHT22;30418;51.45933468;7.33152330;2023-09-08T09:38:28;27.60;53.80
9544;DHT22;30418;51.45933468;7.33152330;2023-09-08T09:40:57;27.80;53.80
9544;DHT22;30418;51.45933468;7.33152330;2023-09-08T09:43:28;27.80;53.70
9544;DHT22;30418;51.45933468;7.33152330;2023-09-08T09:45:59;27.80;53.70
9544;DHT22;30418;51.45933468;7.33152330;2023-09-08T09:48:32;27.90;53.80
9544;DHT22;30418;51.45933468;7.33152330;2023-09-08T09:51:15;28.00;53.70
9544;DHT22;30418;51.45933468;7.33152330;2023-09-08T09:53:44;28.00;53.40
9544;DHT22;30418;51.45933468;7.33152330;2023-09-08T09:56:17;28.10;53.60
9544;DHT22;30418;51.45933468;7.33152330;2023-09-08T09:58:46;28.10;53.60
9544;DHT22;30418;51.45933468;7.33152330;2023-09-08T10:01:15;28.20;53.50
9544;DHT22;30418;51.45933468;7.33152330;2023-09-08T10:03:46;28.30;53.50
9544;DHT22;30418;51.45933468;7.33152330;2023-09-08T10:06:16;28.30;53.20
9544;DHT22;30418;51.45933468;7.33152330;2023-09-08T10:08:44;28.40;53.30
9544;DHT22;30418;51.45933468;7.33152330;2023-09-08T10:11:16;28.40;53.20
9544;DHT22;30418;51.45933468;7.33152330;2023-09-08T10:13:51;28.50;52.90
9544;DHT22;30418;51.45933468;7.33152330;2023-09-08T10:16:22;28.50;52.90
9544;DHT22;30418;51.45933468;7.33152330;2023-09-08T10:18:58;28.60;52.60
9544;DHT22;30418;51.45933468;7.33152330;2023-09-08T10:21:29;28.60;52.60
9544;DHT22;30418;51.45933468;7.33152330;2023-09-08T10:24:04;28.70;52.80
9544;DHT22;30418;51.45933468;7.33152330;2023-09-08T10:26:41;28.70;52.60
9544;DHT22;30418;51.45933468;7.33152330;2023-09-08T10:29:15;28.80;52.50
9544;DHT22;30418;51.45933468;7.33152330;2023-09-08T10:31:43;28.80;52.40
9544;DHT22;30418;51.45933468;7.33152330;2023-09-08T10:34:15;28.90;52.40
9544;DHT22;30418;51.45933468;7.33152330;2023-09-08T10:36:45;29.00;52.10
9544;DHT22;30418;51.45933468;7.33152330;2023-09-08T10:39:34;29.00;51.90
9544;DHT22;30418;51.45933468;7.33152330;2023-09-08T10:42:24;29.10;51.60
9544;DHT22;30418;51.45933468;7.33152330;2023-09-08T10:44:58;29.10;51.10
9544;DHT22;30418;51.45933468;7.33152330;2023-09-08T10:47:32;29.10;51.20
9544;DHT22;30418;51.45933468;7.33152330;2023-09-08T10:50:06;29.20;51.30
9544;DHT22;30418;51.45933468;7.33152330;2023-09-08T10:52:36;29.30;51.00
9544;DHT22;30418;51.45933468;7.33152330;2023-09-08T10:55:05;29.30;51.10
9544;DHT22;30418;51.45933468;7.33152330;2023-09-08T10:57:34;29.30;50.80
9544;DHT22;30418;51.45933468;7.33152330;2023-09-08T11:00:04;29.40;50.90
9544;DHT22;30418;51.45933468;7.33152330;2023-09-08T11:02:40;29.40;50.50
9544;DHT22;30418;51.45933468;7.33152330;2023-09-08T11:05:12;29.50;50.50
9544;DHT22;30418;51.45933468;7.33152330;2023-09-08T11:07:42;29.50;50.20
9544;DHT22;30418;51.45933468;7.33152330;2023-09-08T11:10:12;29.50;50.20
9544;DHT22;30418;51.45933468;7.33152330;2023-09-08T11:12:41;29.60;50.20
9544;DHT22;30418;51.45933468;7.33152330;2023-09-08T11:15:10;29.70;50.20
9544;DHT22;30418;51.45933468;7.33152330;2023-09-08T11:17:38;29.70;50.00
9544;DHT22;30418;51.45933468;7.33152330;2023-09-08T11:20:11;29.80;50.10
9544;DHT22;30418;51.45933468;7.33152330;2023-09-08T11:22:39;29.80;50.00
9544;DHT22;30418;51.45933468;7.33152330;2023-09-08T11:25:09;29.80;49.70
9544;DHT22;30418;51.45933468;7.33152330;2023-09-08T11:27:39;29.90;49.50
9544;DHT22;30418;51.45933468;7.33152330;2023-09-08T11:30:08;29.90;50.10
9544;DHT22;30418;51.45933468;7.33152330;2023-09-08T11:32:37;30.00;49.50
9544;DHT22;30418;51.45933468;7.33152330;2023-09-08T11:35:08;29.90;49.30
9544;DHT22;30418;51.45933468;7.33152330;2023-09-08T11:37:42;30.00;49.30
9544;DHT22;30418;51.45933468;7.33152330;2023-09-08T11:40:12;30.10;49.00
9544;DHT22;30418;51.45933468;7.33152330;2023-09-08T11:42:41;30.10;49.10
9544;DHT22;30418;51.45933468;7.33152330;2023-09-08T11:45:13;30.20;49.10
9544;DHT22;30418;51.45933468;7.33152330;2023-09-08T11:47:42;30.20;48.80
9544;DHT22;30418;51.45933468;7.33152330;2023-09-08T11:50:13;30.20;48.70
9544;DHT22;30418;51.45933468;7.33152330;2023-09-08T11:52:45;30.20;49.40
9544;DHT22;30418;51.45933468;7.33152330;2023-09-08T11:55:14;30.30;49.60
9544;DHT22;30418;51.45933468;7.33152330;2023-09-08T11:57:47;30.30;48.70
9544;DHT22;30418;51.45933468;7.33152330;2023-09-08T12:00:18;30.40;48.70
9544;DHT22;30418;51.45933468;7.33152330;2023-09-08T12:02:49;30.40;48.80
9544;DHT22;30418;51.45933468;7.33152330;2023-09-08T12:05:31;30.40;48.50
9544;DHT22;30418;51.45933468;7.33152330;2023-09-08T12:08:04;30.50;48.40
9544;DHT22;30418;51.45933468;7.33152330;2023-09-08T12:10:38;30.50;48.90
9544;DHT22;30418;51.45933468;7.33152330;2023-09-08T12:13:09;30.50;48.30
9544;DHT22;30418;51.45933468;7.33152330;2023-09-08T12:15:38;30.60;48.50
9544;DHT22;30418;51.45933468;7.33152330;2023-09-08T12:18:09;30.60;48.20
9544;DHT22;30418;51.45933468;7.33152330;2023-09-08T12:21:03;30.60;47.80
9544;DHT22;30418;51.45933468;7.33152330;2023-09-08T12:23:32;30.70;47.40
9544;DHT22;30418;51.45933468;7.33152330;2023-09-08T12:26:01;30.70;47.60
9544;DHT22;30418;51.45933468;7.33152330;2023-09-08T12:28:30;30.70;47.40
9544;DHT22;30418;51.45933468;7.33152330;2023-09-08T12:31:00;30.80;47.50
9544;DHT22;30418;51.45933468;7.33152330;2023-09-08T12:33:29;30.80;47.50
9544;DHT22;30418;51.45933468;7.33152330;2023-09-08T12:35:59;30.80;47.40
9544;DHT22;30418;51.45933468;7.33152330;2023-09-08T12:38:32;30.90;47.00
9544;DHT22;30418;51.45933468;7.33152330;2023-09-08T12:41:01;30.90;46.70
9544;DHT22;30418;51.45933468;7.33152330;2023-09-08T12:43:29;30.90;46.80
9544;DHT22;30418;51.45933468;7.33152330;2023-09-08T12:45:58;31.00;47.50
9544;DHT22;30418;51.45933468;7.33152330;2023-09-08T12:48:27;31.00;46.90
9544;DHT22;30418;51.45933468;7.33152330;2023-09-08T12:50:55;31.00;46.30
9544;DHT22;30418;51.45933468;7.33152330;2023-09-08T12:53:25;31.10;46.40
9544;DHT22;30418;51.45933468;7.33152330;2023-09-08T12:55:53;31.10;46.20
9544;DHT22;30418;51.45933468;7.33152330;2023-09-08T12:58:22;31.10;46.20
9544;DHT22;30418;51.45933468;7.33152330;2023-09-08T13:00:50;31.10;46.40
9544;DHT22;30418;51.45933468;7.33152330;2023-09-08T13:03:19;31.20;46.20
9544;DHT22;30418;51.45933468;7.33152330;2023-09-08T13:05:47;31.30;46.20
9544;DHT22;30418;51.45933468;7.33152330;2023-09-08T13:08:16;31.30;46.00
9544;DHT22;30418;51.45933468;7.33152330;2023-09-08T13:10:46;31.40;46.20
9544;DHT22;30418;51.45933468;7.33152330;2023-09-08T13:13:14;31.40;46.20
9544;DHT22;30418;51.45933468;7.33152330;2023-09-08T13:15:42;31.40;46.20
9544;DHT22;30418;51.45933468;7.33152330;2023-09-08T13:18:11;31.50;46.10
9544;DHT22;30418;51.45933468;7.33152330;2023-09-08T13:20:40;31.50;46.10
9544;DHT22;30418;51.45933468;7.33152330;2023-09-08T13:23:08;31.50;45.90
9544;DHT22;30418;51.45933468;7.33152330;2023-09-08T13:25:37;31.60;46.00
9544;DHT22;30418;51.45933468;7.33152330;2023-09-08T13:28:08;31.70;45.90
9544;DHT22;30418;51.45933468;7.33152330;2023-09-08T13:30:36;31.70;45.60
9544;DHT22;30418;51.45933468;7.33152330;2023-09-08T13:33:05;31.70;45.90
9544;DHT22;30418;51.45933468;7.33152330;2023-09-08T13:35:34;31.80;45.60
9544;DHT22;30418;51.45933468;7.33152330;2023-09-08T13:38:03;31.80;45.60
9544;DHT22;30418;51.45933468;7.33152330;2023-09-08T13:40:32;31.80;45.60
9544;DHT22;30418;51.45933468;7.33152330;2023-09-08T13:43:00;31.90;45.80
9544;DHT22;30418;51.45933468;7.33152330;2023-09-08T13:45:30;31.90;45.50
9544;DHT22;30418;51.45933468;7.33152330;2023-09-08T13:47:59;32.00;45.40
9544;DHT22;30418;51.45933468;7.33152330;2023-09-08T13:50:28;32.00;45.20